Latest Coastal Weather Observations for Kingfish B

IDV60701

Issued at 2:51 pm EST Thursday 29 September 2016 (issued every 10 minutes, with the page automatically refreshed every 10 minutes)

About coastal observations | Map of coastal stations | Coastal observations for VIC | Marine services | Other Formats
Station Details ID: 400139 Name: KINGFISH B (PLATFORM) Lat: -38.60 Lon: 148.19 Height: 31.4 m
Data from the previous 72 hours. | See also: Recent months for locations in Victoria
Date/Time
EST
Temp
°C
Wind Pressure Rain since
9am
mm
Weather Cloud Vis
km
Sea
Height
m
Swell
Dir  Spd
kts
Gust
kts
hPa Trend Height
m
Period
s
Dir
29/01:40pm 15.2 NNW 9 11 988.9 - - - - - - - - -
29/01:30pm 15.6 NW 11 15 988.8 - - - - - - - - -
29/01:20pm 15.8 NW 12 14 988.6 - - - - - - - - -
29/01:10pm 15.9 NNW 12 14 988.8 - - - - - - - - -
29/01:00pm 15.9 N 12 16 988.7 - - - - - - - - -
29/12:50pm 16.0 N 18 23 988.6 - - - - - - - - -
29/12:40pm 15.9 NNE 22 25 988.5 - - - - - - - - -
29/12:30pm 15.9 NNE 19 23 988.1 - - - - - - - - -
29/12:20pm 15.9 NNE 21 24 987.9 - - - - - - - - -
29/12:10pm 15.9 NNE 24 29 987.8 - - - - - - - - -
29/12:00pm 15.8 NE 26 33 987.7 - - - - - - - - -
29/11:50am 15.6 NE 26 30 987.5 - - - - - - - - -
29/11:40am 15.6 NE 28 34 987.8 - - - - - - - - -
29/11:30am 15.4 NE 29 33 987.7 - - - - - - - - -
29/11:20am 15.3 NE 29 34 988.0 - - - - - - - - -
29/11:10am 15.2 NE 29 34 988.3 - - - - - - - - -
29/11:00am 15.1 NE 30 34 988.8 - - - - - - - - -
29/10:50am 15.0 NE 30 37 988.8 - - - - - - - - -
29/10:40am 14.9 NE 33 38 989.0 - - - - - - - - -
29/10:30am 14.8 NE 34 39 989.0 - - - - - - - - -
29/10:20am 14.8 NE 34 39 988.9 - - - - - - - - -
29/10:10am 14.8 NE 35 42 989.1 - - - - - - - - -
29/10:00am 14.8 NE 36 42 989.1 - - - - - - - - -
29/09:50am 14.8 NE 36 44 989.2 - - - - - - - - -
29/09:40am 14.9 NE 38 46 989.3 - - - - - - - - -
29/09:30am 15.1 NE 35 41 989.4 - - - - - - - - -
29/09:20am 15.1 NE 36 46 989.3 - - - - - - - - -
29/09:10am 15.0 NE 36 42 989.2 - - - - - - - - -
29/08:50am 14.9 ENE 34 43 989.3 - - - - - - - - -
29/08:40am 14.8 ENE 31 42 989.3 - - - - - - - - -
29/08:30am 14.6 ENE 31 39 989.7 - - - - - - - - -
29/08:20am 14.5 ENE 37 44 990.1 - - - - - - - - -
29/08:10am 14.5 NE 40 47 990.3 - - - - - - - - -
29/08:00am 14.6 NE 38 45 990.7 - - - - - - - - -
29/07:50am 14.6 NE 38 47 990.9 - - - - - - - - -
29/07:40am 14.8 NE 38 46 990.9 - - - - - - - - -
29/07:30am 14.9 NE 37 43 991.0 - - - - - - - - -
29/07:20am 14.9 NE 37 43 991.3 - - - - - - - - -
29/07:10am 15.1 NE 36 44 991.6 - - - - - - - - -
29/07:00am 15.1 NE 33 39 991.8 - - - - - - - - -
29/06:50am 15.0 NE 33 39 992.0 - - - - - - - - -
29/06:40am 15.1 NE 31 37 992.1 - - - - - - - - -
29/06:30am 15.2 NE 33 38 992.2 - - - - - - - - -
29/06:20am 15.4 NE 34 40 992.2 - - - - - - - - -
29/06:10am 15.8 NE 34 40 992.3 - - - - - - - - -
29/06:00am 15.8 NE 33 39 992.5 - - - - - - - - -
29/05:50am 15.8 NE 31 37 992.6 - - - - - - - - -
29/05:40am 15.8 NE 32 37 992.8 - - - - - - - - -
29/05:30am 15.8 NE 33 41 992.8 - - - - - - - - -
29/05:20am 15.8 NE 32 37 992.9 - - - - - - - - -
29/05:10am 15.8 NE 33 39 992.9 - - - - - - - - -
29/05:00am 15.8 NE 32 39 992.8 - - - - - - - - -
29/04:50am 15.8 NE 34 40 992.9 - - - - - - - - -
29/04:40am 15.8 NE 32 37 993.0 - - - - - - - - -
29/04:30am 15.8 NE 32 38 993.2 - - - - - - - - -
29/04:20am 15.8 NE 32 37 993.3 - - - - - - - - -
29/04:10am 15.7 NE 32 37 993.5 - - - - - - - - -
29/04:00am 15.7 NE 31 37 993.7 - - - - - - - - -
29/03:50am 15.6 NE 31 36 993.6 - - - - - - - - -
29/03:40am 15.6 NE 30 36 993.9 - - - - - - - - -
29/03:30am 15.6 NE 32 37 994.3 - - - - - - - - -
29/03:20am 15.5 NE 31 37 994.5 - - - - - - - - -
29/02:50am 15.4 NE 35 41 994.4 - - - - - - - - -
29/02:40am 15.4 NE 32 40 994.7 - - - - - - - - -
29/02:30am 15.3 NE 32 38 994.8 - - - - - - - - -
29/02:10am 15.3 NE 32 38 995.2 - - - - - - - - -
29/01:40am 15.3 NE 30 35 996.3 - - - - - - - - -
29/01:10am 15.3 NE 31 36 997.0 - - - - - - - - -
29/01:00am 15.3 NE 30 35 997.1 - - - - - - - - -
29/12:50am 15.3 NE 29 34 997.3 - - - - - - - - -
29/12:40am 15.3 NE 29 33 997.7 - - - - - - - - -
29/12:30am 15.2 NE 29 34 997.8 - - - - - - - - -
29/12:20am 15.2 NE 30 36 997.9 - - - - - - - - -
29/12:10am 15.1 NE 30 34 998.2 - - - - - - - - -
29/12:00am 15.1 NE 32 36 998.3 - - - - - - - - -
 
Date/Time
EST
Temp
°C
Wind Pressure Rain since
9am
mm
Weather Cloud Vis
km
Sea
Height
m
Swell
Dir  Spd
kts
Gust
kts
hPa Trend Height
m
Period
s
Dir
28/11:50pm 15.0 NE 31 35 998.5 - - - - - - - - -
28/11:40pm 15.0 NE 32 35 998.5 - - - - - - - - -
28/11:30pm 15.0 NE 31 36 998.8 - - - - - - - - -
28/11:20pm 15.0 NE 32 38 998.9 - - - - - - - - -
28/11:10pm 15.0 NE 31 36 999.2 - - - - - - - - -
28/11:00pm 15.1 NE 33 38 999.3 - - - - - - - - -
28/10:50pm 15.1 NE 32 38 999.6 - - - - - - - - -
28/10:30pm 15.1 NE 30 35 1000.3 - - - - - - - - -
28/10:20pm 15.0 NE 31 35 1000.5 - - - - - - - - -
28/10:10pm 15.1 NE 30 36 1000.9 - - - - - - - - -
28/10:00pm 15.0 NE 32 36 1000.9 - - - - - - - - -
28/09:50pm 15.0 NE 31 36 1000.9 - - - - - - - - -
28/09:40pm 15.0 NE 32 37 1001.1 - - - - - - - - -
28/09:30pm 15.1 NE 30 36 1001.4 - - - - - - - - -
28/09:20pm 15.1 NE 31 36 1001.6 - - - - - - - - -
28/09:10pm 15.1 NE 33 37 1001.7 - - - - - - - - -
28/09:00pm 15.1 NE 33 37 1001.9 - - - - - - - - -
28/08:50pm 15.2 NE 33 38 1002.0 - - - - - - - - -
28/08:40pm 15.1 NE 32 38 1001.9 - - - - - - - - -
28/08:30pm 15.1 ENE 31 38 1001.9 - - - - - - - - -
28/08:20pm 15.2 ENE 33 39 1002.1 - - - - - - - - -
28/08:10pm 15.2 ENE 32 38 1002.3 - - - - - - - - -
28/08:00pm 15.2 ENE 32 39 1002.4 - - - - - - - - -
28/07:50pm 15.3 ENE 31 39 1002.5 - - - - - - - - -
28/07:40pm 15.2 ENE 30 36 1002.8 - - - - - - - - -
28/07:30pm 15.2 ENE 29 35 1002.9 - - - - - - - - -
28/07:20pm 15.2 ENE 28 37 1003.1 - - - - - - - - -
28/07:10pm 15.2 ENE 27 33 1003.0 - - - - - - - - -
28/07:00pm 15.2 ENE 25 32 1003.1 - - - - - - - - -
28/06:50pm 15.1 ENE 27 34 1003.5 - - - - - - - - -
28/06:40pm 15.1 ENE 25 33 1003.9 - - - - - - - - -
28/06:30pm 15.1 ENE 26 31 1003.9 - - - - - - - - -
28/06:20pm 15.0 ENE 25 30 1004.0 - - - - - - - - -
28/06:10pm 15.0 ENE 24 30 1004.5 - - - - - - - - -
28/06:00pm 15.0 ENE 23 31 1004.5 - - - - - - - - -
28/05:40pm 14.9 ENE 20 25 1004.5 - - - - - - - - -
28/05:30pm 14.9 ENE 20 27 1004.5 - - - - - - - - -
28/05:20pm 14.9 ENE 20 26 1004.9 - - - - - - - - -
28/05:10pm 14.9 ENE 17 21 1005.0 - - - - - - - - -
28/05:00pm 14.8 ENE 17 20 1004.9 - - - - - - - - -
28/04:50pm 14.8 ENE 15 20 1004.7 - - - - - - - - -
28/04:40pm 14.7 ENE 19 25 1004.6 - - - - - - - - -
28/04:30pm 14.6 ENE 21 24 1004.3 - - - - - - - - -
28/04:20pm 14.6 ENE 18 22 1004.5 - - - - - - - - -
28/04:10pm 14.7 ENE 16 21 1004.9 - - - - - - - - -
28/04:00pm 14.6 ENE 15 20 1005.1 - - - - - - - - -
28/01:40pm 14.9 NE 5 7 1007.7 - - - - - - - - -
28/01:30pm 14.9 NE 4 6 1007.8 - - - - - - - - -
28/01:20pm 14.9 NE 4 5 1008.3 - - - - - - - - -
28/01:10pm 14.9 NE 3 4 1008.7 - - - - - - - - -
28/01:00pm 14.9 NNE 3 4 1008.8 - - - - - - - - -
28/12:50pm 14.7 NNE 3 5 1009.3 - - - - - - - - -
28/12:40pm 14.7 NNE 2 4 1009.4 - - - - - - - - -
28/12:30pm 14.6 NNE 2 5 1009.6 - - - - - - - - -
28/12:20pm 14.5 N 2 5 1009.8 - - - - - - - - -
28/12:10pm 14.6 N 2 5 1010.0 - - - - - - - - -
28/12:00pm 14.7 N 2 6 1010.0 - - - - - - - - -
28/11:50am 14.8 NNE 3 5 1010.1 - - - - - - - - -
28/11:40am 14.8 NNE 3 5 1010.1 - - - - - - - - -
28/11:30am 14.9 N 2 5 1010.4 - - - - - - - - -
28/11:20am 15.2 N 2 5 1010.5 - - - - - - - - -
28/11:10am 15.4 NNW 3 5 1010.8 - - - - - - - - -
28/11:00am 15.4 NW 4 5 1010.9 - - - - - - - - -
28/10:50am 15.5 NW 4 5 1011.0 - - - - - - - - -
28/10:40am 15.5 NW 4 6 1011.1 - - - - - - - - -
28/10:30am 15.9 NW 4 6 1011.2 - - - - - - - - -
28/10:20am 16.3 WNW 4 5 1011.2 - - - - - - - - -
28/10:10am 16.6 WNW 4 5 1011.3 - - - - - - - - -
28/10:00am 16.6 WNW 5 7 1011.5 - - - - - - - - -
28/09:50am 16.7 WNW 6 7 1011.7 - - - - - - - - -
28/09:40am 16.9 WNW 6 8 1012.0 - - - - - - - - -
28/09:30am 16.9 WNW 6 8 1012.0 - - - - - - - - -
28/09:20am 16.7 WNW 7 9 1012.1 - - - - - - - - -
28/09:10am 16.8 WNW 6 8 1012.0 - - - - - - - - -
28/09:00am 16.7 WNW 6 8 1012.1 - - - - - - - - -
28/08:50am 16.9 WNW 6 8 1012.1 - - - - - - - - -
28/08:40am 16.9 WNW 7 9 1012.3 - - - - - - - - -
28/08:30am 16.8 WNW 6 8 1012.3 - - - - - - - - -
28/08:20am 16.7 WNW 6 8 1012.4 - - - - - - - - -
28/08:10am 16.4 WNW 6 8 1012.4 - - - - - - - - -
28/08:00am 16.5 WNW 6 8 1012.5 - - - - - - - - -
28/07:50am 16.5 WNW 7 9 1012.5 - - - - - - - - -
28/07:30am 16.7 WNW 8 10 1012.6 - - - - - - - - -
28/07:20am 16.6 WNW 8 10 1012.7 - - - - - - - - -
28/07:10am 16.5 WNW 9 10 1012.6 - - - - - - - - -
28/07:00am 16.5 WNW 8 10 1012.5 - - - - - - - - -
28/06:50am 16.4 WNW 9 11 1012.4 - - - - - - - - -
28/06:40am 16.7 WNW 7 11 1012.3 - - - - - - - - -
28/06:30am 16.6 W 3 5 1011.9 - - - - - - - - -
28/06:20am 16.5 W 2 5 1011.9 - - - - - - - - -
28/06:10am 16.3 W 1 3 1011.9 - - - - - - - - -
28/06:00am 16.2 W 1 2 1011.7 - - - - - - - - -
28/05:50am 15.9 W 1 2 1011.7 - - - - - - - - -
28/05:40am 15.6 WSW 1 2 1011.8 - - - - - - - - -
28/05:30am 15.3 W 1 2 1011.7 - - - - - - - - -
28/05:20am 14.6 WSW 1 3 1011.6 - - - - - - - - -
28/05:10am 13.9 WSW 1 3 1011.4 - - - - - - - - -
28/05:00am 13.4 WSW 2 4 1011.5 - - - - - - - - -
28/04:50am 13.4 WSW 2 4 1011.7 - - - - - - - - -
28/04:40am 13.3 WSW 2 4 1011.5 - - - - - - - - -
28/04:30am 13.4 WSW 1 3 1011.4 - - - - - - - - -
28/04:20am 13.3 WSW 1 3 1011.2 - - - - - - - - -
28/04:10am 13.3 WSW 1 4 1011.4 - - - - - - - - -
28/04:00am 13.3 WSW 1 3 1011.3 - - - - - - - - -
28/03:50am 13.2 CALM 0 1 1011.2 - - - - - - - - -
28/03:40am 13.2 CALM 0 2 1011.2 - - - - - - - - -
28/03:30am 13.2 WSW 1 3 1011.2 - - - - - - - - -
28/03:20am 13.2 WSW 1 3 1011.1 - - - - - - - - -
28/03:10am 13.2 WSW 1 3 1011.1 - - - - - - - - -
28/03:00am 13.1 SW 2 4 1011.1 - - - - - - - - -
28/02:50am 13.1 SW 2 4 1011.0 - - - - - - - - -
28/02:40am 13.1 SW 3 5 1011.0 - - - - - - - - -
28/02:30am 13.2 SW 3 6 1010.9 - - - - - - - - -
28/02:20am 13.1 SW 3 6 1010.8 - - - - - - - - -
28/02:10am 13.0 SW 3 5 1011.0 - - - - - - - - -
28/02:00am 12.9 SW 4 5 1010.6 - - - - - - - - -
28/01:50am 12.9 SW 4 7 1010.6 - - - - - - - - -
28/01:40am 12.9 SW 4 6 1010.6 - - - - - - - - -
28/01:30am 12.9 SW 5 6 1010.5 - - - - - - - - -
28/01:20am 12.8 SW 5 7 1010.6 - - - - - - - - -
28/01:10am 12.9 SW 6 10 1010.6 - - - - - - - - -
28/01:00am 12.8 SW 6 10 1010.6 - - - - - - - - -
28/12:50am 12.9 SW 6 8 1010.7 - - - - - - - - -
28/12:40am 12.9 SW 5 9 1010.6 - - - - - - - - -
28/12:30am 12.9 SW 6 9 1010.7 - - - - - - - - -
28/12:20am 13.0 SW 7 10 1010.9 - - - - - - - - -
28/12:10am 13.0 SW 6 9 1011.0 - - - - - - - - -
28/12:00am 13.0 SW 6 9 1011.0 - - - - - - - - -
 
Date/Time
EST
Temp
°C
Wind Pressure Rain since
9am
mm
Weather Cloud Vis
km
Sea
Height
m
Swell
Dir  Spd
kts
Gust
kts
hPa Trend Height
m
Period
s
Dir
27/11:50pm 13.0 SW 5 7 1011.1 - - - - - - - - -
27/11:40pm 13.0 SW 5 7 1011.0 - - - - - - - - -
27/11:30pm 13.0 SW 5 7 1010.9 - - - - - - - - -
27/11:20pm 13.1 SW 6 8 1011.1 - - - - - - - - -
27/11:10pm 13.1 SW 7 9 1011.1 - - - - - - - - -
27/11:00pm 13.1 SW 7 11 1011.3 - - - - - - - - -
27/10:50pm 13.0 SW 8 10 1011.3 - - - - - - - - -
27/10:40pm 13.0 SW 7 10 1011.0 - - - - - - - - -
27/10:30pm 12.9 SW 6 8 1011.1 - - - - - - - - -
27/10:20pm 13.0 SW 6 9 1011.1 - - - - - - - - -
27/10:10pm 12.9 SW 8 10 1010.7 - - - - - - - - -
27/10:00pm 12.9 SW 9 11 1010.8 - - - - - - - - -
27/09:50pm 13.0 SSW 9 12 1010.7 - - - - - - - - -
27/09:40pm 13.0 SW 9 12 1010.9 - - - - - - - - -
27/09:30pm 13.0 SW 9 12 1011.0 - - - - - - - - -
27/09:20pm 12.9 SW 8 12 1010.9 - - - - - - - - -
27/09:10pm 12.8 SSW 8 12 1010.7 - - - - - - - - -
27/09:00pm 12.7 SSW 8 10 1010.7 - - - - - - - - -
27/08:50pm 12.8 SSW 8 12 1011.1 - - - - - - - - -
27/08:40pm 12.8 SSW 12 14 1011.0 - - - - - - - - -
27/08:30pm 13.0 SSW 14 16 1010.9 - - - - - - - - -
27/08:20pm 13.0 SSW 14 17 1010.7 - - - - - - - - -
27/08:10pm 13.0 SSW 13 16 1010.9 - - - - - - - - -
27/08:00pm 13.4 SSW 10 13 1010.6 - - - - - - - - -
27/07:50pm 13.6 SW 9 12 1010.6 - - - - - - - - -
27/07:40pm 13.4 SW 10 13 1010.5 - - - - - - - - -
27/07:30pm 13.4 SW 12 14 1010.4 - - - - - - - - -
27/07:20pm 13.5 SW 11 15 1010.2 - - - - - - - - -
27/07:10pm 13.4 SW 11 14 1010.3 - - - - - - - - -
27/07:00pm 13.2 SW 11 14 1010.1 - - - - - - - - -
27/06:50pm 13.2 SW 11 14 1010.0 - - - - - - - - -
27/06:40pm 13.1 SW 9 13 1010.2 - - - - - - - - -
27/06:30pm 13.2 SSW 8 10 1010.3 - - - - - - - - -
27/06:20pm 13.2 SSW 8 10 1010.3 - - - - - - - - -
27/06:10pm 13.2 SSW 7 9 1010.1 - - - - - - - - -
27/06:00pm 13.2 SSW 5 8 1010.5 - - - - - - - - -
27/05:50pm 13.1 SSW 6 8 1010.5 - - - - - - - - -
27/05:40pm 13.2 SSW 5 7 1010.3 - - - - - - - - -
27/05:30pm 13.3 SSW 6 8 1010.1 - - - - - - - - -
27/05:20pm 13.3 SSW 6 8 1010.2 - - - - - - - - -
27/05:10pm 13.2 SSW 4 7 1010.1 - - - - - - - - -
27/05:00pm 13.2 SSW 5 7 1010.1 - - - - - - - - -
27/04:50pm 13.3 SSW 5 8 1010.2 - - - - - - - - -
27/04:40pm 13.4 SSW 3 6 1010.1 - - - - - - - - -
27/04:30pm 13.5 SSW 4 6 1010.1 - - - - - - - - -
27/04:20pm 13.5 SSW 4 7 1010.0 - - - - - - - - -
27/04:10pm 13.5 SSW 6 8 1009.9 - - - - - - - - -
27/04:00pm 13.5 SSW 6 9 1009.9 - - - - - - - - -
27/03:50pm 13.4 SSW 6 8 1009.7 - - - - - - - - -
27/03:40pm 13.5 SSW 6 9 1009.4 - - - - - - - - -
27/03:20pm 13.5 SSW 7 10 1009.1 - - - - - - - - -
27/03:10pm 13.5 SW 7 10 1008.9 - - - - - - - - -
27/03:00pm 13.6 SW 7 10 1008.7 - - - - - - - - -
27/02:50pm 13.6 SW 7 9 1008.5 - - - - - - - - -
27/02:40pm 13.8 SW 8 10 1008.6 - - - - - - - - -
27/02:30pm 13.7 SW 8 10 1008.6 - - - - - - - - -
27/02:20pm 13.6 SW 8 11 1008.6 - - - - - - - - -
27/02:10pm 13.6 SW 9 13 1008.4 - - - - - - - - -
27/02:00pm 13.5 SW 9 11 1008.5 - - - - - - - - -
27/01:50pm 13.3 SW 10 13 1008.5 - - - - - - - - -
27/01:40pm 13.3 SW 10 13 1008.3 - - - - - - - - -
27/01:30pm 13.2 SSW 10 12 1008.2 - - - - - - - - -
27/01:20pm 13.3 SW 9 12 1008.3 - - - - - - - - -
27/01:10pm 13.2 SW 9 11 1008.3 - - - - - - - - -
27/01:00pm 13.1 SSW 9 11 1008.3 - - - - - - - - -
27/12:50pm 13.2 SSW 9 11 1008.2 - - - - - - - - -
27/12:40pm 13.3 SSW 8 11 1008.3 - - - - - - - - -
27/12:30pm 13.6 SSW 9 11 1008.2 - - - - - - - - -
27/12:20pm 13.8 SW 9 12 1007.9 - - - - - - - - -
27/12:10pm 13.7 SSW 8 12 1008.1 - - - - - - - - -
27/12:00pm 13.7 SSW 8 12 1008.1 - - - - - - - - -
27/11:50am 13.7 SSW 9 12 1008.0 - - - - - - - - -
27/11:40am 13.7 SSW 9 12 1008.1 - - - - - - - - -
27/11:30am 13.7 SSW 9 12 1008.1 - - - - - - - - -
27/11:20am 13.7 SSW 9 13 1008.3 - - - - - - - - -
27/11:10am 13.6 SSW 9 11 1008.4 - - - - - - - - -
27/11:00am 13.7 SSW 9 13 1008.2 - - - - - - - - -
27/10:50am 13.7 SSW 10 13 1008.2 - - - - - - - - -
27/10:40am 13.8 SSW 10 13 1008.1 - - - - - - - - -
27/10:30am 14.0 SW 9 12 1008.1 - - - - - - - - -
27/10:20am 14.1 SSW 8 11 1008.2 - - - - - - - - -
27/10:10am 13.8 SSW 9 12 1008.0 - - - - - - - - -
27/10:00am 13.7 SSW 7 11 1008.2 - - - - - - - - -
27/09:50am 13.7 SSW 8 11 1008.2 - - - - - - - - -
27/09:40am 13.4 SSW 7 11 1008.3 - - - - - - - - -
27/09:30am 13.6 SW 7 11 1008.2 - - - - - - - - -
27/09:20am 13.7 SW 9 12 1007.8 - - - - - - - - -
27/09:10am 13.9 SW 8 11 1007.9 - - - - - - - - -
27/09:00am 13.8 SW 7 12 1007.8 - - - - - - - - -
27/08:50am 13.5 SW 7 10 1007.8 - - - - - - - - -
27/08:40am 13.2 SW 8 11 1007.8 - - - - - - - - -
27/08:30am 12.6 SW 7 11 1007.8 - - - - - - - - -
27/08:20am 12.2 SW 7 10 1007.9 - - - - - - - - -
27/08:10am 12.5 SW 7 11 1007.6 - - - - - - - - -
27/08:00am 12.3 SW 8 11 1007.6 - - - - - - - - -
27/07:50am 12.3 SW 6 12 1008.2 - - - - - - - - -
27/07:40am 12.2 SW 6 9 1008.2 - - - - - - - - -
27/07:30am 12.1 SW 6 10 1008.1 - - - - - - - - -
27/07:20am 12.1 SW 7 10 1007.9 - - - - - - - - -
27/07:10am 11.8 SW 7 10 1007.8 - - - - - - - - -
27/07:00am 11.8 SW 8 11 1007.5 - - - - - - - - -
27/06:50am 11.7 SW 8 11 1007.3 - - - - - - - - -
27/06:40am 11.5 SW 9 12 1006.7 - - - - - - - - -
27/06:30am 11.4 SW 9 13 1006.7 - - - - - - - - -
27/06:20am 11.3 SW 10 12 1006.9 - - - - - - - - -
27/06:10am 11.4 SW 9 13 1007.1 - - - - - - - - -
27/06:00am 11.3 SW 10 13 1006.9 - - - - - - - - -
27/05:50am 11.4 SW 8 11 1007.1 - - - - - - - - -
27/05:40am 11.3 SW 8 11 1007.1 - - - - - - - - -
27/05:30am 11.1 SW 7 11 1007.1 - - - - - - - - -
27/05:20am 11.3 SW 7 11 1007.2 - - - - - - - - -
27/05:10am 11.2 SW 6 11 1007.1 - - - - - - - - -
27/05:00am 11.2 SW 6 8 1006.9 - - - - - - - - -
27/04:50am 11.2 WSW 5 8 1006.8 - - - - - - - - -
27/04:40am 11.4 WSW 8 12 1006.9 - - - - - - - - -
27/04:30am 11.4 WSW 6 9 1006.9 - - - - - - - - -
27/04:20am 11.6 W 7 11 1006.8 - - - - - - - - -
27/04:10am 11.9 W 10 14 1006.7 - - - - - - - - -
27/04:00am 12.7 W 14 18 1006.4 - - - - - - - - -
27/03:50am 13.1 W 12 19 1006.5 - - - - - - - - -
27/03:40am 13.1 WSW 4 6 1006.7 - - - - - - - - -
27/03:30am 13.3 WSW 5 7 1006.6 - - - - - - - - -
27/03:20am 13.5 WSW 3 6 1006.7 - - - - - - - - -
27/03:10am 13.6 WSW 2 4 1006.5 - - - - - - - - -
27/03:00am 13.6 WSW 1 3 1006.5 - - - - - - - - -
27/02:50am 13.6 CALM 0 2 1006.6 - - - - - - - - -
27/02:40am 13.7 CALM 0 0 1006.6 - - - - - - - - -
27/02:30am 14.1 CALM 0 1 1006.6 - - - - - - - - -
27/02:20am 14.0 CALM 0 0 1006.5 - - - - - - - - -
27/02:10am 14.1 WNW 1 3 1006.6 - - - - - - - - -
27/02:00am 13.9 WNW 2 5 1006.8 - - - - - - - - -
27/01:50am 13.9 WNW 4 8 1006.9 - - - - - - - - -
27/01:40am 13.7 N 3 7 1007.0 - - - - - - - - -
27/01:30am 13.7 N 3 5 1007.1 - - - - - - - - -
27/01:20am 13.7 N 3 5 1007.1 - - - - - - - - -
27/01:10am 13.7 N 3 5 1007.2 - - - - - - - - -
27/01:00am 13.7 N 4 6 1007.5 - - - - - - - - -
27/12:50am 13.7 - 3 5 1007.6 - - - - - - - - -
27/12:40am 13.7 - 3 5 1007.7 - - - - - - - - -
27/12:30am 13.7 N 4 6 1007.9 - - - - - - - - -
27/12:20am 13.7 - 3 5 1008.1 - - - - - - - - -
27/12:10am 13.6 N 2 4 1008.1 - - - - - - - - -
 
Date/Time
EST
Temp
°C
Wind Pressure Rain since
9am
mm
Weather Cloud Vis
km
Sea
Height
m
Swell
Dir  Spd
kts
Gust
kts
hPa Trend Height
m
Period
s
Dir
26/11:50pm 13.5 - 2 4 1008.4 - - - - - - - - -
26/11:40pm 13.5 - 2 4 1008.5 - - - - - - - - -
26/11:30pm 13.5 - 3 4 1008.7 - - - - - - - - -
26/11:20pm 13.4 - 3 4 1008.8 - - - - - - - - -
26/11:10pm 13.5 - 2 4 1008.8 - - - - - - - - -
26/11:00pm 13.5 N 1 3 1008.9 - - - - - - - - -
26/10:50pm 13.4 CALM 0 2 1008.8 - - - - - - - - -
26/10:40pm 13.3 CALM 0 1 1008.9 - - - - - - - - -
26/10:30pm 13.3 CALM 0 1 1008.8 - - - - - - - - -
26/10:20pm 13.3 CALM 0 2 1009.0 - - - - - - - - -
26/10:10pm 13.3 N 1 3 1009.2 - - - - - - - - -
26/10:00pm 13.3 CALM 0 2 1009.2 - - - - - - - - -
26/09:50pm 13.2 CALM 0 2 1009.4 - - - - - - - - -
26/09:40pm 13.2 CALM 0 0 1009.4 - - - - - - - - -
26/09:30pm 13.2 CALM 0 0 1009.5 - - - - - - - - -
26/09:20pm 13.2 CALM 0 0 1009.5 - - - - - - - - -
26/09:10pm 13.1 CALM 0 0 1009.8 - - - - - - - - -
26/09:00pm 13.1 CALM 0 1 1010.1 - - - - - - - - -
26/08:50pm 13.0 CALM 0 0 1010.3 - - - - - - - - -
26/08:40pm 13.0 CALM 0 0 1010.1 - - - - - - - - -
26/08:30pm 12.9 CALM 0 0 1010.0 - - - - - - - - -
26/08:20pm 12.9 CALM 0 0 1010.1 - - - - - - - - -
26/08:10pm 12.9 CALM 0 0 1010.0 - - - - - - - - -
26/08:00pm 12.7 CALM 0 0 1009.9 - - - - - - - - -
26/07:50pm 12.7 CALM 0 0 1010.1 - - - - - - - - -
26/07:40pm 12.7 CALM 0 0 1009.9 - - - - - - - - -
26/07:30pm 12.7 CALM 0 0 1010.0 - - - - - - - - -
26/07:20pm 12.7 CALM 0 0 1010.1 - - - - - - - - -
26/07:10pm 12.7 CALM 0 0 1010.2 - - - - - - - - -
26/07:00pm 12.6 CALM 0 0 1010.2 - - - - - - - - -
26/06:50pm 12.5 CALM 0 0 1010.1 - - - - - - - - -
26/06:40pm 12.5 CALM 0 0 1010.1 - - - - - - - - -
26/06:30pm 12.4 CALM 0 0 1010.2 - - - - - - - - -
26/06:20pm 12.3 CALM 0 0 1010.2 - - - - - - - - -
26/06:10pm 12.1 CALM 0 0 1010.0 - - - - - - - - -
26/06:00pm 12.1 CALM 0 0 1010.0 - - - - - - - - -
26/05:50pm 12.1 CALM 0 0 1010.0 - - - - - - - - -
26/05:40pm 12.1 CALM 0 0 1010.1 - - - - - - - - -
26/05:30pm 12.0 CALM 0 0 1010.0 - - - - - - - - -
26/05:20pm 12.0 CALM 0 0 1010.0 - - - - - - - - -
26/05:10pm 12.1 CALM 0 0 1009.9 - - - - - - - - -
26/05:00pm 12.2 CALM 0 0 1010.0 - - - - - - - - -
26/04:50pm 12.2 CALM 0 0 1010.0 - - - - - - - - -
26/04:40pm 12.1 CALM 0 0 1009.9 - - - - - - - - -
26/04:30pm 12.4 CALM 0 0 1009.8 - - - - - - - - -
26/04:20pm 12.3 CALM 0 0 1009.8 - - - - - - - - -
26/04:10pm 12.2 CALM 0 0 1009.6 - - - - - - - - -
26/04:00pm 12.2 CALM 0 0 1009.7 - - - - - - - - -
26/03:50pm 12.5 CALM 0 0 1009.6 - - - - - - - - -
26/03:40pm 12.5 CALM 0 0 1009.7 - - - - - - - - -
26/03:30pm 12.4 CALM 0 0 1009.8 - - - - - - - - -
26/03:20pm 12.4 CALM 0 0 1009.8 - - - - - - - - -
26/03:10pm 12.3 CALM 0 0 1009.9 - - - - - - - - -
26/03:00pm 12.2 CALM 0 0 1009.9 - - - - - - - - -

Other Formats:

Comma delimited format used in spreadsheet applications
http://www.bom.gov.au/fwo/IDV60701/IDV60701.55039.axf

JavaScript Object Notation format (JSON) in row-major order
http://www.bom.gov.au/fwo/IDV60701/IDV60701.55039.json